createdAt,value
2018-05-09T00:01:11.260Z,14.30
2018-05-09T00:03:41.595Z,14.30
2018-05-09T00:06:11.824Z,14.30
2018-05-09T00:08:41.728Z,14.20
2018-05-09T00:11:12.296Z,14.20
2018-05-09T00:13:43.696Z,14.20
2018-05-09T00:16:14.860Z,14.10
2018-05-09T00:18:45.570Z,14.10
2018-05-09T00:21:15.907Z,14.00
2018-05-09T00:23:47.263Z,14.00
2018-05-09T00:26:19.287Z,14.00
2018-05-09T00:28:49.522Z,13.90
2018-05-09T00:31:19.575Z,13.90
2018-05-09T00:33:49.675Z,13.80
2018-05-09T00:36:19.915Z,13.90
2018-05-09T00:38:50.004Z,13.80
2018-05-09T00:41:20.461Z,13.70
2018-05-09T00:43:50.773Z,13.60
2018-05-09T00:46:21.008Z,13.60
2018-05-09T00:48:51.219Z,13.50
2018-05-09T00:51:22.777Z,13.60
2018-05-09T00:53:57.620Z,13.50
2018-05-09T00:56:27.532Z,13.50
2018-05-09T00:59:46.918Z,13.50
2018-05-09T01:02:19.792Z,13.40
2018-05-09T01:04:52.571Z,13.40
2018-05-09T01:07:22.700Z,13.40
2018-05-09T01:09:52.807Z,13.40
2018-05-09T01:12:24.556Z,13.30
2018-05-09T01:14:54.681Z,13.30
2018-05-09T01:17:25.315Z,13.30
2018-05-09T01:19:56.198Z,13.30
2018-05-09T01:22:27.816Z,13.20
2018-05-09T01:24:58.276Z,13.20
2018-05-09T01:27:29.795Z,13.10
2018-05-09T01:30:00.228Z,13.20
2018-05-09T01:32:30.964Z,13.10
2018-05-09T01:35:01.492Z,13.10
2018-05-09T01:37:32.323Z,13.10
2018-05-09T01:40:02.520Z,13.50
2018-05-09T01:42:33.179Z,13.10
2018-05-09T01:45:03.200Z,13.00
2018-05-09T01:47:34.401Z,13.00
2018-05-09T01:50:05.484Z,13.00
2018-05-09T01:52:37.091Z,12.90
2018-05-09T01:55:07.920Z,12.90
2018-05-09T01:57:37.787Z,12.90
2018-05-09T02:00:08.307Z,12.90
2018-05-09T02:02:38.551Z,12.80
2018-05-09T02:05:08.563Z,12.70
2018-05-09T02:07:39.402Z,12.80
2018-05-09T02:10:11.066Z,12.70
2018-05-09T02:12:41.525Z,12.70
2018-05-09T02:15:12.162Z,12.70
2018-05-09T02:17:42.790Z,12.60
2018-05-09T02:20:14.654Z,12.60
2018-05-09T02:22:44.366Z,12.60
2018-05-09T02:25:15.193Z,12.50
2018-05-09T02:27:44.872Z,12.50
2018-05-09T02:30:14.565Z,12.50
2018-05-09T02:32:45.316Z,12.50
2018-05-09T02:35:15.427Z,12.50
2018-05-09T02:37:46.058Z,13.80
2018-05-09T02:40:16.643Z,12.50
2018-05-09T02:42:47.720Z,12.50
2018-05-09T02:45:18.112Z,12.40
2018-05-09T02:47:50.376Z,12.40
2018-05-09T02:50:20.452Z,12.40
2018-05-09T02:52:51.812Z,12.40
2018-05-09T02:55:21.932Z,12.40
2018-05-09T02:57:52.348Z,10.80
2018-05-09T03:00:22.576Z,12.30
2018-05-09T03:02:52.672Z,12.20
2018-05-09T03:05:22.745Z,12.30
2018-05-09T03:07:53.264Z,12.30
2018-05-09T03:10:23.380Z,12.20
2018-05-09T03:12:53.868Z,14.00
2018-05-09T03:15:24.118Z,12.20
2018-05-09T03:17:53.816Z,12.20
2018-05-09T03:20:24.307Z,12.10
2018-05-09T03:22:56.638Z,12.10
2018-05-09T03:25:28.232Z,12.10
2018-05-09T03:27:58.562Z,12.00
2018-05-09T03:30:29.183Z,12.00
2018-05-09T03:32:59.354Z,11.90
2018-05-09T03:35:29.035Z,12.00
2018-05-09T03:37:59.107Z,12.00
2018-05-09T03:40:29.207Z,11.90
2018-05-09T03:42:59.315Z,12.00
2018-05-09T03:45:29.432Z,12.00
2018-05-09T03:47:59.660Z,12.00
2018-05-09T03:50:29.780Z,12.00
2018-05-09T03:52:59.928Z,11.90
2018-05-09T03:55:30.056Z,11.90
2018-05-09T03:58:00.147Z,11.90
2018-05-09T04:00:30.260Z,11.90
2018-05-09T04:03:13.544Z,12.10
2018-05-09T04:07:53.669Z,11.90
2018-05-09T04:10:26.033Z,12.10
2018-05-09T04:12:56.160Z,12.10
2018-05-09T04:15:26.312Z,12.10
2018-05-09T04:17:57.347Z,12.10
2018-05-09T04:20:28.425Z,12.10
2018-05-09T04:22:58.812Z,12.20
2018-05-09T04:25:29.315Z,12.20
2018-05-09T04:27:59.656Z,12.20
2018-05-09T04:30:32.355Z,12.50
2018-05-09T04:33:02.265Z,12.60
2018-05-09T04:35:32.351Z,12.90
2018-05-09T04:38:02.518Z,13.10
2018-05-09T04:40:32.676Z,15.20
2018-05-09T04:43:02.751Z,17.70
2018-05-09T04:45:32.440Z,14.90
2018-05-09T04:48:02.544Z,15.30
2018-05-09T04:50:33.989Z,15.60
2018-05-09T04:53:05.213Z,16.00
2018-05-09T04:55:37.508Z,16.20
2018-05-09T04:58:08.200Z,16.50
2018-05-09T05:00:38.472Z,16.80
2018-05-09T05:03:10.544Z,17.00
2018-05-09T05:05:40.664Z,17.40
2018-05-09T05:08:10.764Z,18.20
2018-05-09T05:10:41.896Z,19.50
2018-05-09T05:13:11.983Z,21.30
2018-05-09T05:15:42.502Z,23.00
2018-05-09T05:18:12.700Z,24.40
2018-05-09T05:20:42.856Z,25.60
2018-05-09T05:23:13.737Z,26.80
2018-05-09T05:25:45.924Z,27.80
2018-05-09T05:28:17.576Z,28.60
2018-05-09T05:30:47.905Z,29.70
2018-05-09T05:33:19.161Z,30.40
2018-05-09T05:35:49.621Z,30.70
2018-05-09T05:38:19.955Z,31.00
2018-05-09T05:40:50.452Z,31.40
2018-05-09T05:43:20.543Z,31.50
2018-05-09T05:45:52.884Z,31.50
2018-05-09T05:48:28.689Z,31.50
2018-05-09T05:51:01.043Z,31.90
2018-05-09T05:53:32.088Z,32.40
2018-05-09T05:56:02.383Z,32.90
2018-05-09T05:58:32.435Z,33.30
2018-05-09T06:01:04.706Z,33.90
2018-05-09T06:03:34.836Z,34.50
2018-05-09T06:06:04.876Z,34.60
2018-05-09T06:08:34.944Z,35.00
2018-05-09T06:11:05.180Z,35.40
2018-05-09T06:13:35.223Z,35.80
2018-05-09T06:16:05.420Z,36.10
2018-05-09T06:18:51.494Z,36.50
2018-05-09T06:21:21.996Z,36.90
2018-05-09T06:23:51.795Z,35.40
2018-05-09T06:26:21.447Z,37.30
2018-05-09T06:28:51.491Z,37.60
2018-05-09T06:31:21.224Z,37.80
2018-05-09T06:33:51.284Z,38.20
2018-05-09T06:36:20.980Z,38.50
2018-05-09T06:38:51.140Z,37.30
2018-05-09T06:41:22.040Z,37.50
2018-05-09T06:43:52.108Z,39.30
2018-05-09T06:46:22.239Z,39.60
2018-05-09T06:48:54.195Z,39.80
2018-05-09T06:51:24.437Z,40.10
2018-05-09T06:53:54.232Z,42.00
2018-05-09T06:56:23.936Z,40.90
2018-05-09T06:58:54.056Z,41.30
2018-05-09T07:01:24.192Z,41.50
2018-05-09T07:03:54.276Z,41.60
2018-05-09T07:06:24.026Z,41.60
2018-05-09T07:08:54.228Z,41.80
2018-05-09T07:11:24.267Z,38.90
2018-05-09T07:13:54.008Z,41.10
2018-05-09T07:16:24.152Z,41.10
2018-05-09T07:18:54.273Z,41.10
2018-05-09T07:21:24.415Z,41.10
2018-05-09T07:26:39.657Z,40.40
2018-05-09T07:29:09.828Z,40.10
2018-05-09T07:31:39.516Z,40.20
2018-05-09T07:34:09.768Z,40.30
2018-05-09T07:36:40.295Z,40.20
2018-05-09T07:39:11.143Z,39.90
2018-05-09T07:41:40.952Z,39.80
2018-05-09T07:44:14.259Z,40.40
2018-05-09T07:46:48.803Z,40.90
2018-05-09T07:49:21.572Z,39.30
2018-05-09T07:51:58.089Z,40.80
2018-05-09T07:54:28.240Z,40.40
2018-05-09T07:56:58.372Z,40.20
2018-05-09T07:59:28.463Z,39.90
2018-05-09T08:01:58.533Z,39.40
2018-05-09T08:04:29.532Z,39.40
2018-05-09T08:06:59.679Z,39.90
2018-05-09T08:09:30.045Z,40.40
2018-05-09T08:12:00.972Z,40.60
2018-05-09T08:14:31.452Z,40.20
2018-05-09T08:17:02.265Z,39.80
2018-05-09T08:19:33.348Z,40.00
2018-05-09T08:22:03.734Z,36.20
2018-05-09T08:24:34.311Z,39.70
2018-05-09T08:27:05.344Z,39.50
2018-05-09T08:29:35.688Z,39.70
2018-05-09T08:32:05.843Z,39.80
2018-05-09T08:34:39.814Z,39.30
2018-05-09T08:37:11.399Z,38.80
2018-05-09T08:39:42.125Z,38.40
2018-05-09T08:42:24.790Z,38.50
2018-05-09T08:44:56.296Z,38.00
2018-05-09T08:47:28.515Z,38.40
2018-05-09T08:49:59.431Z,38.80
2018-05-09T08:52:30.442Z,41.40
2018-05-09T08:55:00.908Z,39.90
2018-05-09T08:57:32.036Z,40.20
2018-05-09T09:00:03.009Z,40.90
2018-05-09T09:02:33.230Z,41.00
2018-05-09T09:05:03.334Z,41.00
2018-05-09T09:07:33.130Z,41.10
2018-05-09T09:10:02.888Z,41.30
2018-05-09T09:12:32.726Z,41.40
2018-05-09T09:15:07.895Z,40.90
2018-05-09T09:17:39.500Z,41.00
2018-05-09T09:20:10.167Z,41.50
2018-05-09T09:22:40.804Z,41.50
2018-05-09T09:25:11.656Z,41.50
2018-05-09T09:27:41.962Z,41.40
2018-05-09T09:30:13.043Z,41.30
2018-05-09T09:32:42.766Z,41.10
2018-05-09T09:35:12.899Z,41.60
2018-05-09T09:37:43.004Z,40.40
2018-05-09T09:40:13.105Z,40.20
2018-05-09T09:42:43.302Z,39.90
2018-05-09T09:45:13.457Z,39.50
2018-05-09T09:47:43.603Z,39.50
2018-05-09T09:50:16.057Z,39.60
2018-05-09T09:52:46.268Z,39.50
2018-05-09T09:55:16.326Z,39.20
2018-05-09T09:57:46.495Z,39.30
2018-05-09T10:00:20.776Z,39.40
2018-05-09T10:02:50.996Z,39.40
2018-05-09T10:05:21.141Z,39.20
2018-05-09T10:07:53.427Z,39.30
2018-05-09T10:10:23.688Z,39.40
2018-05-09T10:12:54.404Z,39.10
2018-05-09T10:15:24.668Z,38.70
2018-05-09T10:17:54.789Z,38.60
2018-05-09T10:20:24.863Z,38.70
2018-05-09T10:22:55.096Z,38.10
2018-05-09T10:25:26.498Z,38.10
2018-05-09T10:27:58.283Z,38.10
2018-05-09T10:30:28.531Z,38.70
2018-05-09T10:35:59.462Z,38.70
2018-05-09T10:38:30.930Z,39.00
2018-05-09T10:41:01.226Z,39.10
2018-05-09T10:43:31.338Z,39.30
2018-05-09T10:46:01.413Z,38.70
2018-05-09T10:48:31.119Z,38.30
2018-05-09T10:51:01.341Z,38.00
2018-05-09T10:53:31.073Z,37.70
2018-05-09T10:56:20.520Z,37.30
2018-05-09T10:58:50.843Z,36.60
2018-05-09T11:01:20.887Z,35.80
2018-05-09T11:03:51.338Z,35.10
2018-05-09T11:06:21.092Z,34.50
2018-05-09T11:08:53.383Z,34.10
2018-05-09T11:11:23.499Z,33.70
2018-05-09T11:13:53.632Z,33.20
2018-05-09T11:16:23.728Z,33.40
2018-05-09T11:18:53.778Z,34.70
2018-05-09T11:21:23.911Z,36.00
2018-05-09T11:23:54.092Z,37.00
2018-05-09T11:26:24.598Z,36.70
2018-05-09T11:28:54.740Z,35.50
2018-05-09T11:31:24.448Z,34.20
2018-05-09T11:33:54.544Z,33.50
2018-05-09T11:36:38.004Z,33.10
2018-05-09T11:39:07.732Z,33.40
2018-05-09T11:41:37.491Z,33.80
2018-05-09T11:44:08.256Z,34.20
2018-05-09T11:46:58.562Z,33.80
2018-05-09T11:49:29.288Z,32.50
2018-05-09T11:51:59.956Z,31.90
2018-05-09T11:54:30.155Z,32.20
2018-05-09T11:57:01.418Z,32.90
2018-05-09T11:59:33.248Z,33.90
2018-05-09T12:02:04.313Z,34.20
2018-05-09T12:04:34.617Z,34.70
2018-05-09T12:07:04.735Z,34.80
2018-05-09T12:09:34.760Z,35.30
2018-05-09T12:12:04.879Z,35.40
2018-05-09T12:14:37.339Z,35.50
2018-05-09T12:17:07.479Z,36.90
2018-05-09T12:19:39.032Z,35.90
2018-05-09T12:22:08.793Z,36.10
2018-05-09T12:24:38.886Z,36.20
2018-05-09T12:27:08.965Z,36.20
2018-05-09T12:29:40.020Z,35.70
2018-05-09T12:32:10.380Z,34.90
2018-05-09T12:34:41.117Z,36.50
2018-05-09T12:37:13.464Z,33.70
2018-05-09T12:39:43.585Z,33.20
2018-05-09T12:45:04.506Z,32.40
2018-05-09T12:47:34.610Z,32.30
2018-05-09T12:50:05.028Z,32.10
2018-05-09T12:52:47.155Z,31.60
2018-05-09T12:55:18.000Z,29.30
2018-05-09T12:57:50.820Z,30.50
2018-05-09T13:00:21.499Z,30.10
2018-05-09T13:02:52.182Z,30.20
2018-05-09T13:05:21.981Z,30.00
2018-05-09T13:07:51.775Z,29.90
2018-05-09T13:10:22.749Z,29.80
2018-05-09T13:12:53.687Z,30.00
2018-05-09T13:15:24.464Z,30.10
2018-05-09T13:17:57.786Z,30.20
2018-05-09T13:20:28.307Z,30.80
2018-05-09T13:22:58.419Z,31.30
2018-05-09T13:25:28.536Z,31.60
2018-05-09T13:27:58.964Z,32.00
2018-05-09T13:30:29.900Z,28.50
2018-05-09T13:33:00.080Z,32.30
2018-05-09T13:35:30.752Z,31.90
2018-05-09T13:40:59.277Z,31.40
2018-05-09T13:43:30.311Z,31.20
2018-05-09T13:46:12.479Z,31.20
2018-05-09T13:48:43.492Z,31.00
2018-05-09T13:51:13.972Z,30.80
2018-05-09T13:53:44.887Z,30.70
2018-05-09T13:59:08.732Z,30.50
2018-05-09T14:01:38.829Z,30.40
2018-05-09T14:04:08.952Z,30.60
2018-05-09T14:06:56.475Z,30.60
2018-05-09T14:09:42.589Z,30.50
2018-05-09T14:12:12.664Z,28.80
2018-05-09T14:14:42.724Z,30.30
2018-05-09T14:17:12.915Z,30.30
2018-05-09T14:19:42.620Z,30.30
2018-05-09T14:22:12.697Z,28.50
2018-05-09T14:24:42.931Z,30.00
2018-05-09T14:27:13.307Z,29.80
2018-05-09T14:29:45.177Z,29.30
2018-05-09T14:32:15.378Z,29.30
2018-05-09T14:34:45.412Z,29.20
2018-05-09T14:37:27.309Z,29.00
2018-05-09T14:39:57.659Z,29.20
2018-05-09T14:42:28.724Z,29.20
2018-05-09T14:47:57.679Z,29.00
2018-05-09T14:50:27.479Z,29.00
2018-05-09T14:52:57.549Z,28.90
2018-05-09T14:55:27.745Z,29.00
2018-05-09T14:57:57.916Z,29.00
2018-05-09T15:00:27.988Z,29.10
2018-05-09T15:02:58.104Z,29.00
2018-05-09T15:05:28.228Z,29.00
2018-05-09T15:07:57.989Z,29.00
2018-05-09T15:10:28.816Z,29.10
2018-05-09T15:12:58.941Z,29.10
2018-05-09T15:15:29.004Z,29.10
2018-05-09T15:17:59.320Z,29.00
2018-05-09T15:23:30.231Z,29.20
2018-05-09T15:26:02.480Z,29.20
2018-05-09T15:28:32.886Z,29.20
2018-05-09T15:31:03.092Z,29.10
2018-05-09T15:33:34.920Z,29.00
2018-05-09T15:36:04.992Z,28.70
2018-05-09T15:38:35.371Z,28.80
2018-05-09T15:41:05.445Z,28.70
2018-05-09T15:43:35.560Z,28.40
2018-05-09T15:46:05.697Z,28.20
2018-05-09T15:48:49.775Z,28.00
2018-05-09T15:51:19.864Z,27.80
2018-05-09T15:53:50.145Z,27.80
2018-05-09T15:56:20.368Z,27.70
2018-05-09T16:01:45.309Z,27.60
2018-05-09T16:04:15.736Z,27.70
2018-05-09T16:06:45.986Z,27.70
2018-05-09T16:09:23.968Z,27.60
2018-05-09T16:11:54.099Z,27.60
2018-05-09T16:14:24.312Z,27.50
2018-05-09T16:17:24.634Z,27.60
2018-05-09T16:19:55.485Z,27.50
2018-05-09T16:22:30.415Z,27.50
2018-05-09T16:25:00.475Z,27.50
2018-05-09T16:27:30.548Z,27.50
2018-05-09T16:30:00.841Z,27.50
2018-05-09T16:32:32.963Z,27.50
2018-05-09T16:35:05.969Z,27.50
2018-05-09T16:37:44.565Z,27.50
2018-05-09T16:43:29.219Z,27.50
2018-05-09T17:07:53.245Z,27.20
2018-05-09T17:10:24.603Z,27.10
2018-05-09T17:12:55.144Z,26.90
2018-05-09T17:18:19.696Z,26.50
2018-05-09T17:20:49.772Z,26.40
2018-05-09T17:23:33.647Z,26.10
2018-05-09T17:26:03.739Z,26.00
2018-05-09T17:28:34.756Z,25.90
2018-05-09T17:31:19.008Z,25.80
2018-05-09T17:33:50.077Z,25.70
2018-05-09T17:36:43.181Z,25.60
2018-05-09T17:39:13.214Z,25.40
2018-05-09T17:41:45.412Z,25.40
2018-05-09T17:44:15.408Z,25.30
2018-05-09T17:47:03.464Z,25.20
2018-05-09T17:49:33.559Z,25.00
2018-05-09T17:52:23.485Z,25.10
2018-05-09T17:54:53.655Z,25.00
2018-05-09T17:57:26.836Z,24.90
2018-05-09T17:59:57.202Z,24.80
2018-05-09T18:02:27.825Z,24.70
2018-05-09T18:07:58.511Z,24.30
2018-05-09T18:13:28.193Z,24.10
2018-05-09T18:15:58.584Z,23.90
2018-05-09T18:18:29.163Z,23.70
2018-05-09T18:21:07.462Z,23.50
2018-05-09T18:23:49.403Z,23.30
2018-05-09T18:26:29.228Z,23.30
2018-05-09T18:28:59.378Z,23.10
2018-05-09T18:31:29.476Z,23.00
2018-05-09T18:34:00.608Z,22.80
2018-05-09T18:36:30.739Z,22.70
2018-05-09T18:39:00.969Z,22.60
2018-05-09T18:41:34.168Z,22.50
2018-05-09T18:44:07.702Z,22.40
2018-05-09T18:46:37.884Z,22.20
2018-05-09T18:49:08.675Z,22.20
2018-05-09T18:51:38.758Z,22.20
2018-05-09T18:54:08.900Z,22.00
2018-05-09T18:56:41.285Z,22.00
2018-05-09T18:59:13.860Z,21.90
2018-05-09T19:02:03.405Z,21.90
2018-05-09T19:04:34.212Z,21.80
2018-05-09T19:07:04.398Z,21.50
2018-05-09T19:09:34.970Z,21.60
2018-05-09T19:12:24.327Z,21.50
2018-05-09T19:14:54.864Z,21.40
2018-05-09T19:17:31.455Z,21.10
2018-05-09T19:20:02.181Z,21.10
2018-05-09T19:22:31.993Z,21.00
2018-05-09T19:25:02.279Z,20.90
2018-05-09T19:27:32.381Z,20.70
2018-05-09T19:32:41.483Z,20.40
2018-05-09T19:35:16.507Z,20.30
2018-05-09T19:37:47.147Z,20.20
2018-05-09T19:40:17.378Z,20.00
2018-05-09T19:42:47.353Z,19.90
2018-05-09T19:45:24.895Z,19.90
2018-05-09T19:47:56.893Z,19.80
2018-05-09T19:50:30.479Z,19.70
2018-05-09T19:53:01.220Z,19.60
2018-05-09T19:55:31.506Z,19.60
2018-05-09T19:58:03.440Z,19.40
2018-05-09T20:00:33.708Z,19.40
2018-05-09T20:03:03.917Z,17.80
2018-05-09T20:05:34.060Z,19.20
2018-05-09T20:08:04.158Z,19.10
2018-05-09T20:10:48.109Z,19.10
2018-05-09T20:13:18.950Z,19.00
2018-05-09T20:16:08.816Z,18.90
2018-05-09T20:18:39.044Z,18.70
2018-05-09T20:21:10.377Z,18.70
2018-05-09T20:23:40.510Z,18.70
2018-05-09T20:26:10.742Z,18.60
2018-05-09T20:28:45.040Z,18.50
2018-05-09T20:31:30.987Z,18.50
2018-05-09T20:34:00.845Z,18.40
2018-05-09T20:36:31.284Z,18.30
2018-05-09T20:39:07.866Z,18.30
2018-05-09T20:41:38.344Z,18.20
2018-05-09T20:44:17.227Z,18.10
2018-05-09T20:46:47.332Z,18.10
2018-05-09T20:49:17.452Z,17.90
2018-05-09T20:51:52.088Z,18.00
2018-05-09T20:54:22.172Z,17.90
2018-05-09T20:56:52.215Z,17.90
2018-05-09T20:59:21.621Z,17.60
2018-05-09T21:01:51.751Z,17.70
2018-05-09T21:04:21.860Z,17.70
2018-05-09T21:07:01.501Z,17.70
2018-05-09T21:09:31.730Z,17.60
2018-05-09T21:12:09.835Z,17.60
2018-05-09T21:14:40.692Z,17.50
2018-05-09T21:17:10.895Z,17.40
2018-05-09T21:19:41.019Z,17.30
2018-05-09T21:22:11.233Z,17.20
2018-05-09T21:24:41.347Z,17.10
2018-05-09T21:27:11.656Z,17.00
2018-05-09T21:29:41.696Z,17.00
2018-05-09T21:32:11.408Z,16.90
2018-05-09T21:34:41.580Z,17.00
2018-05-09T21:37:11.856Z,17.00
2018-05-09T21:39:41.972Z,17.00
2018-05-09T21:42:12.113Z,16.80
2018-05-09T21:44:42.272Z,16.80
2018-05-09T21:47:12.348Z,16.80
2018-05-09T21:49:42.465Z,14.60
2018-05-09T21:52:12.572Z,16.70
2018-05-09T21:54:42.691Z,16.60
2018-05-09T21:57:12.751Z,16.50
2018-05-09T21:59:42.947Z,16.50
2018-05-09T22:02:13.059Z,16.40
2018-05-09T22:04:43.150Z,16.50
2018-05-09T22:07:13.188Z,16.60
2018-05-09T22:09:43.415Z,14.20
2018-05-09T22:12:13.420Z,16.60
2018-05-09T22:14:43.660Z,16.50
2018-05-09T22:17:13.780Z,16.40
2018-05-09T22:19:43.896Z,16.40
2018-05-09T22:22:14.310Z,16.40
2018-05-09T22:24:44.549Z,16.40
2018-05-09T22:27:14.676Z,16.40
2018-05-09T22:29:44.463Z,16.40
2018-05-09T22:32:14.596Z,16.40
2018-05-09T22:34:44.828Z,16.40
2018-05-09T22:37:15.148Z,19.50
2018-05-09T22:39:45.268Z,14.90
2018-05-09T22:42:18.600Z,16.50
2018-05-09T22:44:48.783Z,16.50
2018-05-09T22:47:19.986Z,16.60
2018-05-09T22:49:50.779Z,18.60
2018-05-09T22:52:20.884Z,16.60
2018-05-09T22:54:51.730Z,16.50
2018-05-09T22:57:22.153Z,16.60
2018-05-09T22:59:52.676Z,16.70
2018-05-09T23:02:22.904Z,16.60
2018-05-09T23:04:54.963Z,16.60
2018-05-09T23:07:25.732Z,16.60
2018-05-09T23:09:56.861Z,16.70
2018-05-09T23:12:29.128Z,16.70
2018-05-09T23:14:59.221Z,16.70
2018-05-09T23:17:30.585Z,16.80
2018-05-09T23:20:00.640Z,16.80
2018-05-09T23:22:30.672Z,16.80
2018-05-09T23:25:00.749Z,16.70
2018-05-09T23:27:33.316Z,16.70
2018-05-09T23:30:05.376Z,16.70
2018-05-09T23:32:36.492Z,16.70
2018-05-09T23:35:06.650Z,16.60
2018-05-09T23:37:37.644Z,16.50
2018-05-09T23:40:07.703Z,16.50
2018-05-09T23:42:38.144Z,15.90
2018-05-09T23:45:09.175Z,16.40
2018-05-09T23:47:39.703Z,16.40
2018-05-09T23:50:11.360Z,16.30
2018-05-09T23:52:42.400Z,16.30
2018-05-09T23:55:13.018Z,16.10
2018-05-09T23:57:44.335Z,16.20
